Alfred, Texas
Current Conditions -  °F | °C
As of 2:10 AM on Friday 21 Nov 2014 (Local Time) from KALI Reporting Station
Broken Clouds Broken Clouds  
Wind Chill: 66°   Ceiling: 5000
Heat Index: 66°   Visibility: 9mi
Dew Point: 64°   Wind: 6mph
Humidity: 93%   Direction: 160°SSE
Pressure: 30.03"   Gusts: NA
Location:  27.6821°N, 98.1034°W
Report Text: KALI 210810Z AUTO 16005KT 9SM SCT027 BKN050 19/18 A3003 RMK AO2 T01890178
Loading
Personal Weather Stations






























Interactive Weather Map New forecast layout! Learn more

10-Day Weather Forecast

Advertisements
Track Severe Weather on mobile